Latest Weather Observations for Padthaway

IDS60801

Issued at 11:31 pm CST Tuesday 26 May 2015 (issued every 30 minutes, with the page automatically refreshed every 10 minutes)

About weather observations | Map of weather stations | Latest weather observations for SA | Other Formats
Station Details ID: 026100 Name: PADTHAWAY SOUTH Lat: -36.65 Lon: 140.52 Height: 37.0 m
Data from the previous 72 hours. | See also: Recent months at Padthaway
Date/Time
CST
Temp
°C
App
Temp
°C
Dew
Point
Rel
Hum
%
Delta-T
°C
Wind Press
QNH
hPa
Press
MSL
hPa
Rain
since 9 am
mm
Dir
 
Spd
km/h
Gust
km/h
Spd
kts
Gust
kts
26/11:30pm 14.6 12.0 9.2 70 2.8 NNE 13 17 7 9 - - 0.0
26/11:00pm 14.7 12.0 9.1 69 2.9 NNE 13 19 7 10 - - 0.0
26/10:30pm 14.8 12.2 9.2 69 2.9 NNE 13 19 7 10 - - 0.0
26/10:00pm 14.9 12.7 9.3 69 2.9 NNE 11 15 6 8 - - 0.0
26/09:30pm 15.1 12.9 9.5 69 2.9 NNE 11 13 6 7 - - 0.0
26/09:00pm 14.7 13.0 9.7 72 2.6 NNE 9 13 5 7 - - 0.0
26/08:30pm 15.2 13.0 9.3 68 3.0 NNE 11 15 6 8 - - 0.0
26/08:00pm 14.9 13.4 9.1 68 3.0 N 7 9 4 5 - - 0.0
26/07:30pm 15.5 13.5 8.7 64 3.5 NNE 9 13 5 7 - - 0.0
26/07:00pm 15.4 13.5 8.9 65 3.3 NNE 9 11 5 6 - - 0.0
26/06:30pm 14.8 13.2 8.7 67 3.1 NNE 7 9 4 5 - - 0.0
26/06:00pm 14.1 13.3 8.3 68 2.9 NE 2 7 1 4 - - 0.0
26/05:30pm 15.1 13.5 8.6 65 3.3 NE 7 9 4 5 - - 0.0
26/05:00pm 16.1 14.3 8.1 59 4.0 NE 7 9 4 5 - - 0.0
26/04:30pm 17.6 15.1 8.2 54 4.8 NNE 11 17 6 9 - - 0.0
26/04:00pm 19.1 16.3 8.4 50 5.5 NNE 13 20 7 11 - - 0.0
26/03:30pm 18.3 15.5 8.6 53 5.0 NNE 13 20 7 11 - - 0.0
26/03:00pm 19.1 16.0 8.7 51 5.4 NNE 15 20 8 11 - - 0.0
26/02:30pm 18.8 15.3 8.7 52 5.3 NNE 17 22 9 12 - - 0.0
26/02:00pm 18.7 15.6 8.9 53 5.1 NNE 15 20 8 11 - - 0.0
26/01:30pm 18.4 16.0 10.0 58 4.5 NE 13 19 7 10 - - 0.0
26/01:00pm 17.8 15.2 9.2 57 4.5 NE 13 19 7 10 - - 0.0
26/12:30pm 17.5 14.9 9.4 59 4.2 NE 13 17 7 9 - - 0.0
26/12:00pm 17.0 14.6 8.7 58 4.3 NNE 11 17 6 9 - - 0.0
26/11:30am 15.6 12.8 8.4 62 3.7 NE 13 19 7 10 - - 0.0
26/11:00am 14.9 11.5 7.7 62 3.6 NE 15 20 8 11 - - 0.0
26/10:30am 14.7 11.8 8.0 64 3.3 NE 13 20 7 11 - - 0.0
26/10:00am 12.6 9.5 7.3 70 2.6 N 13 19 7 10 - - 0.0
26/09:30am 12.3 9.1 7.0 70 2.5 NNE 13 20 7 11 - - 0.0
26/09:00am 11.6 7.6 6.5 71 2.4 NE 17 24 9 13 - - 0.0
26/08:30am 10.7 8.7 6.3 74 2.1 ENE 6 11 3 6 - - 0.0
26/08:00am 10.4 8.2 6.0 74 2.0 E 7 15 4 8 - - 0.0
26/07:30am 10.3 6.9 5.7 73 2.1 NE 13 17 7 9 - - 0.0
26/07:00am 10.2 6.7 5.4 72 2.2 NNE 13 19 7 10 - - 0.0
26/06:30am 10.3 6.8 5.5 72 2.2 NNE 13 19 7 10 - - 0.0
26/06:00am 10.1 7.3 5.1 71 2.3 NE 9 13 5 7 - - 0.0
26/05:30am 10.2 8.3 5.0 70 2.4 ENE 4 9 2 5 - - 0.0
26/05:00am 10.2 6.9 4.8 69 2.4 NE 11 15 6 8 - - 0.0
26/04:30am 10.3 6.3 4.9 69 2.4 NE 15 20 8 11 - - 0.0
26/04:00am 10.1 5.7 4.9 70 2.3 NE 17 22 9 12 - - 0.0
26/03:30am 10.3 6.3 4.7 68 2.5 NE 15 20 8 11 - - 0.0
26/03:00am 10.5 6.8 4.4 66 2.7 NE 13 17 7 9 - - 0.0
26/02:30am 10.7 7.0 4.2 64 2.9 NE 13 20 7 11 - - 0.0
26/02:00am 11.1 8.1 4.1 62 3.1 NE 9 17 5 9 - - 0.0
26/01:30am 10.9 8.0 4.8 66 2.8 NE 9 15 5 8 - - 0.0
26/01:00am 10.2 7.3 4.8 69 2.4 NE 9 15 5 8 - - 0.0
26/12:30am 9.0 7.8 4.4 73 2.0 CALM 0 0 0 0 - - 0.0
26/12:00am 9.4 8.2 4.6 72 2.1 CALM 0 0 0 0 - - 0.0
 
Date/Time
CST
Temp
°C
App
Temp
°C
Dew
Point
Rel
Hum
%
Delta-T
°C
Wind Press
QNH
hPa
Press
MSL
hPa
Rain
since 9 am
mm
Dir
 
Spd
km/h
Gust
km/h
Spd
kts
Gust
kts
25/11:30pm 11.0 8.2 5.3 68 2.6 NNE 9 13 5 7 - - 0.0
25/11:00pm 11.5 8.4 5.4 66 2.8 NE 11 17 6 9 - - 0.0
25/10:30pm 11.7 8.3 5.8 67 2.8 NE 13 19 7 10 - - 0.0
25/10:00pm 10.5 7.6 6.6 77 1.8 NNE 11 15 6 8 - - 0.0
25/09:30pm 7.9 6.8 5.2 83 1.2 CALM 0 0 0 0 - - 0.0
25/09:00pm 8.3 7.3 5.8 84 1.1 CALM 0 2 0 1 - - 0.0
25/08:30pm 7.8 5.4 5.4 85 1.1 ENE 7 9 4 5 - - 0.0
25/08:00pm 8.1 5.8 5.6 84 1.1 NE 7 9 4 5 - - 0.0
25/07:30pm 8.3 5.7 5.9 85 1.1 ENE 9 9 5 5 - - 0.0
25/07:00pm 8.8 6.7 5.7 81 1.4 NE 6 9 3 5 - - 0.0
25/06:30pm 9.8 6.9 6.3 79 1.6 ENE 11 13 6 7 - - 0.0
25/06:00pm 11.0 10.2 6.6 74 2.1 CALM 0 0 0 0 - - 0.0
25/05:30pm 12.6 10.6 6.2 65 3.0 ENE 6 7 3 4 - - 0.0
25/05:00pm 15.6 13.4 6.3 54 4.5 ENE 7 9 4 5 - - 0.0
25/04:30pm 17.3 15.2 6.8 50 5.2 ENE 7 9 4 5 - - 0.0
25/04:00pm 17.9 16.1 7.0 49 5.5 ENE 6 13 3 7 - - 0.0
25/03:30pm 18.3 16.2 6.8 47 5.7 ENE 7 13 4 7 - - 0.0
25/03:00pm 18.3 16.4 7.7 50 5.4 NNE 7 13 4 7 - - 0.0
25/02:30pm 17.9 16.1 7.3 50 5.3 E 6 11 3 6 - - 0.0
25/02:00pm 17.9 15.7 7.9 52 5.1 NNW 9 13 5 7 - - 0.0
25/01:30pm 18.3 16.9 7.4 49 5.5 SE 4 11 2 6 - - 0.0
25/01:00pm 17.4 15.1 7.5 52 5.0 N 9 17 5 9 - - 0.0
25/12:30pm 17.2 15.0 7.8 54 4.8 NNE 9 13 5 7 - - 0.0
25/12:00pm 16.9 14.8 6.7 51 5.0 NE 7 11 4 6 - - 0.0
25/11:30am 15.8 14.3 6.8 55 4.4 ENE 4 9 2 5 - - 0.0
25/11:00am 15.4 12.7 7.4 59 4.0 NE 11 15 6 8 - - 0.0
25/10:30am 14.9 11.6 6.5 57 4.1 NNE 13 17 7 9 - - 0.0
25/10:00am 15.1 13.9 8.1 63 3.5 NNE 4 7 2 4 - - 0.0
25/09:30am 12.7 10.8 7.6 71 2.5 NNE 7 11 4 6 - - 0.0
25/09:00am 11.0 9.2 7.3 78 1.8 NNE 6 9 3 5 - - 0.0
25/08:30am 9.1 8.4 6.9 86 1.0 CALM 0 0 0 0 - - 0.0
25/08:00am 8.6 7.8 6.4 86 1.0 CALM 0 0 0 0 - - 0.0
25/07:30am 7.8 5.7 5.9 88 0.9 E 6 9 3 5 - - 0.0
25/07:00am 7.6 6.7 5.9 89 0.8 CALM 0 0 0 0 - - 0.0
25/06:30am 7.5 6.5 5.6 88 0.9 CALM 0 0 0 0 - - 0.0
25/06:00am 7.7 5.4 5.5 86 1.0 E 7 9 4 5 - - 0.0
25/05:30am 7.9 5.7 5.5 85 1.1 S 6 9 3 5 - - 0.0
25/05:00am 8.6 7.6 5.4 80 1.4 CALM 0 0 0 0 - - 0.0
25/04:30am 9.3 7.1 5.5 77 1.7 NNW 6 9 3 5 - - 0.0
25/04:00am 9.4 7.2 5.4 76 1.8 NNW 6 7 3 4 - - 0.0
25/03:30am 10.1 7.0 5.7 74 2.0 NNE 11 15 6 8 - - 0.0
25/03:00am 9.7 7.4 5.7 76 1.8 N 7 9 4 5 - - 0.0
25/02:30am 9.9 7.6 5.9 76 1.8 NNE 7 9 4 5 - - 0.0
25/02:00am 9.8 7.2 6.0 77 1.8 NNE 9 11 5 6 - - 0.0
25/01:30am 9.1 6.8 5.7 79 1.5 NNE 7 11 4 6 - - 0.0
25/01:00am 9.3 6.7 5.9 79 1.6 N 9 11 5 6 - - 0.0
25/12:30am 9.3 7.0 5.7 78 1.6 NE 7 7 4 4 - - 0.0
25/12:00am 9.5 6.8 5.5 76 1.8 ENE 9 13 5 7 - - 0.0
 
Date/Time
CST
Temp
°C
App
Temp
°C
Dew
Point
Rel
Hum
%
Delta-T
°C
Wind Press
QNH
hPa
Press
MSL
hPa
Rain
since 9 am
mm
Dir
 
Spd
km/h
Gust
km/h
Spd
kts
Gust
kts
24/11:30pm 10.2 7.5 5.6 73 2.1 NE 9 11 5 6 - - 0.0
24/11:00pm 10.3 8.1 5.5 72 2.2 NNE 6 9 3 5 - - 0.0
24/10:30pm 10.3 8.0 5.5 72 2.2 NNE 7 11 4 6 - - 0.0
24/10:00pm 9.9 7.2 5.5 74 2.0 N 9 9 5 5 - - 0.0
24/09:30pm 8.7 6.9 5.4 80 1.5 NNE 4 9 2 5 - - 0.0
24/09:00pm 9.1 6.3 5.3 77 1.7 N 9 11 5 6 - - 0.0
24/08:30pm 8.9 6.5 5.3 78 1.6 N 7 9 4 5 - - 0.0
24/08:00pm 10.0 7.3 5.4 73 2.1 N 9 9 5 5 - - 0.0
24/07:30pm 9.8 7.1 5.4 74 2.0 N 9 11 5 6 - - 0.0
24/07:00pm 10.2 7.1 5.6 73 2.1 NNE 11 11 6 6 - - 0.0
24/06:30pm 10.3 8.1 5.5 72 2.2 NNE 6 7 3 4 - - 0.0
24/06:00pm 11.3 9.2 5.6 68 2.6 NNE 6 9 3 5 - - 0.0
24/05:30pm 11.6 8.9 5.5 66 2.8 NNE 9 11 5 6 - - 0.0
24/05:00pm 12.4 9.7 5.6 63 3.2 NE 9 11 5 6 - - 0.0
24/04:30pm 13.7 11.4 5.6 58 3.8 NNE 7 9 4 5 - - 0.0
24/04:00pm 14.8 11.6 5.3 53 4.5 NNW 11 15 6 8 - - 0.0
24/03:30pm 15.4 11.8 5.0 50 4.9 N 13 17 7 9 - - 0.0
24/03:00pm 15.8 13.7 6.5 54 4.5 N 7 15 4 8 - - 0.0
24/02:30pm 15.6 13.5 6.6 55 4.4 NNW 7 13 4 7 - - 0.0
24/02:00pm 14.3 11.5 6.9 61 3.6 N 11 17 6 9 - - 0.0
24/01:30pm 14.4 11.3 7.2 62 3.5 NNE 13 17 7 9 - - 0.0
24/01:00pm 13.3 10.3 5.9 61 3.5 N 11 17 6 9 - - 0.0
24/12:30pm 13.1 9.9 6.7 65 3.1 N 13 22 7 12 - - 0.0
24/12:00pm 12.9 9.2 6.5 65 3.1 N 15 19 8 10 - - 0.0
24/11:30am 12.8 9.9 6.4 65 3.1 N 11 17 6 9 - - 0.0
24/11:00am 11.5 8.2 6.4 71 2.4 N 13 19 7 10 - - 0.0
24/10:30am 11.3 8.0 6.4 72 2.3 N 13 20 7 11 - - 0.0
24/10:00am 9.9 6.5 5.7 75 1.9 NNE 13 19 7 10 - - 0.0
24/09:30am 8.6 5.1 5.4 80 1.4 NNE 13 17 7 9 - - 0.0
24/09:00am 8.4 4.9 5.5 82 1.3 NNE 13 19 7 10 - - 0.0
24/08:30am 7.9 4.3 5.0 82 1.3 NNE 13 22 7 12 - - 0.0
24/08:00am 6.3 3.4 4.6 89 0.7 N 9 13 5 7 - - 0.0
24/07:30am 4.4 1.4 4.1 98 0.1 NNE 9 11 5 6 - - 0.0
24/07:00am 1.9 -0.6 1.3 96 0.2 N 4 7 2 4 - - 0.0
24/06:30am 1.8 0.0 1.2 96 0.2 CALM 0 0 0 0 - - 0.0
24/06:00am 1.8 0.0 1.2 96 0.2 CALM 0 0 0 0 - - 0.0
24/05:30am 2.3 0.6 1.9 97 0.2 CALM 0 0 0 0 - - 0.0
24/05:00am 0.7 -1.3 0.1 96 0.2 CALM 0 0 0 0 - - 0.0
24/04:30am 0.7 -1.3 0.0 95 0.3 CALM 0 0 0 0 - - 0.0
24/04:00am 1.1 -0.8 0.5 96 0.2 CALM 0 0 0 0 - - 0.0
24/03:30am 1.5 -0.3 0.9 96 0.2 CALM 0 0 0 0 - - 0.0
24/03:00am 2.1 0.3 1.5 96 0.2 CALM 0 0 0 0 - - 0.0
24/02:30am 2.2 -0.9 1.6 96 0.2 ESE 7 9 4 5 - - 0.0
24/02:00am 2.3 0.6 1.7 96 0.2 CALM 0 7 0 4 - - 0.0
24/01:30am 2.1 0.3 1.5 96 0.2 CALM 0 0 0 0 - - 0.0
24/01:00am 2.1 0.3 1.5 96 0.2 CALM 0 0 0 0 - - 0.0
24/12:30am 2.7 -0.1 2.1 96 0.2 S 6 7 3 4 - - 0.0
24/12:00am 3.0 0.1 2.4 96 0.2 E 7 9 4 5 - - 0.0

Other Formats:

Comma delimited format used in spreadsheet applications
http://www.bom.gov.au/fwo/IDS60801/IDS60801.95823.axf

JavaScript Object Notation format (JSON) in row-major order
http://www.bom.gov.au/fwo/IDS60801/IDS60801.95823.json